Latest Coastal Weather Observations for Bunbury

IDW60701

Issued at 2:22 am WST Friday 3 July 2015 (issued every 10 minutes, with the page automatically refreshed every 10 minutes)

About coastal observations | Map of coastal stations | Coastal observations for WA | Marine services | Other Formats
Station Details ID: 009965 Name: BUNBURY Lat: -33.36 Lon: 115.64 Height: 5.2 m
Data from the previous 72 hours. | See also: Recent months at Bunbury
Date/Time
WST
Temp

°C
Wind Pressure Rain
since 9am
mm
Weather Cloud Vis
km
Sea
Height
m
Swell
Dir
 
Speed
knots
Gust
knots
hPa Trend Height
m
Period
s
Dir
01/08:00pm 17.4 - - - 1024.0 - - - - - - - - -
01/08:30am 14.7 NNE 4 6 1023.7 - 0.2 - - - - - - -
01/08:00am 12.4 ENE 1 1 1023.5 - 0.2 - - - - - - -
01/07:30am 12.1 ENE 1 2 1023.2 - 0.2 - - - - - - -
01/07:00am 13.2 NE 2 3 1023.0 - 0.2 - - - - - - -
01/06:30am 13.8 NE 2 3 1022.9 - 0.2 - - - - - - -
01/06:00am 13.9 NE 2 3 1022.8 - 0.2 - - - - - - -
01/05:30am 13.9 NE 2 3 1022.7 - 0.2 - - - - - - -
01/05:00am 14.0 NE 3 4 1022.8 - 0.2 - - - - - - -
01/04:30am 14.4 NE 3 5 1022.8 - 0.2 - - - - - - -
01/04:00am 14.9 NE 4 5 1022.9 - 0.2 - - - - - - -
01/03:30am 14.8 NNE 3 5 1023.0 - 0.2 - - - - - - -
01/03:00am 12.6 ENE 3 7 1022.8 - 0.2 - - - - - - -
01/02:30am 12.9 CALM 0 1 1022.8 - 0.2 - - - - - - -
01/02:00am 12.6 ENE 1 2 1022.7 - 0.2 - - - - - - -
01/01:30am 14.1 CALM 0 0 1022.6 - 0.2 - - - - - - -
01/01:00am 14.4 ENE 4 6 1022.7 - 0.2 - - - - - - -
01/12:30am 12.9 ENE 1 2 1022.8 - 0.0 - - - - - - -
01/12:00am 13.4 ENE 1 2 1022.8 - 0.0 - - - - - - -
 
Date/Time
WST
Temp

°C
Wind Pressure Rain
since 9am
mm
Weather Cloud Vis
km
Sea
Height
m
Swell
Dir
 
Speed
knots
Gust
knots
hPa Trend Height
m
Period
s
Dir
30/11:30pm 14.3 ENE 2 3 1022.9 - 0.0 - - - - - - -
30/11:00pm 13.4 CALM 0 1 1023.3 - 0.0 - - - - - - -
30/10:30pm 13.8 CALM 0 0 1022.9 - 0.0 - - - - - - -
30/10:00pm 14.0 ENE 2 3 1022.4 - 0.0 - - - - - - -
30/09:30pm 13.1 NE 2 2 1023.0 - 0.0 - - - - - - -
30/09:00pm 14.6 ENE 2 3 1022.8 - 0.0 - - - - - - -
30/08:30pm 14.9 E 3 3 1022.5 - 0.0 - - - - - - -
30/08:00pm 14.6 E 1 2 1023.0 - 0.0 - - - - - - -
30/07:30pm 14.8 E 2 3 1022.7 - 0.0 - - - - - - -
30/07:00pm 15.2 ENE 2 3 1022.6 - 0.0 - - - - - - -
30/06:30pm 15.9 CALM 0 1 1022.6 - 0.0 - - - - - - -
30/06:00pm 16.6 NNE 3 4 1021.6 - 0.0 - - - - - - -
30/05:30pm 17.0 N 4 7 1021.9 - 0.0 - - - - - - -
30/05:00pm 17.4 N 4 6 1021.7 - 0.0 - - - - - - -
30/04:30pm 17.6 NNE 4 7 1021.7 - 0.0 - - - - - - -
30/04:00pm 18.1 N 5 9 1022.0 - 0.0 - - - - - - -
30/03:30pm 18.4 N 4 7 1021.6 - 0.0 - - - - - - -
30/03:00pm 18.5 N 4 7 1021.7 - 0.0 - - - - - - -
30/02:30pm 18.5 NNW 5 8 1021.9 - 0.0 - - - - - - -
30/02:00pm 19.4 NNE 5 7 1021.5 - 0.0 - - - - - - -
30/01:30pm 19.6 NNE 5 7 1021.4 - 0.0 - - - - - - -
30/01:00pm 18.5 NNE 5 8 1021.3 - 0.0 - - - - - - -
30/12:30pm 17.9 NE 5 7 1021.9 - 0.0 - - - - - - -
30/12:00pm 17.3 NNE 5 7 1022.5 - 0.0 - - - - - - -
30/11:30am 17.0 NNE 4 7 1023.1 - 0.0 - - - - - - -
30/11:00am 16.5 NE 3 5 1023.5 - 0.0 - - - - - - -
30/10:30am 15.7 NE 3 4 1023.6 - 0.0 - - - - - - -
30/10:00am 14.3 E 2 3 1023.7 - 0.0 - - - - - - -
30/09:30am 12.2 ENE 2 4 1023.5 - 0.0 - - - - - - -
30/09:00am 9.8 NE 2 3 1023.5 - 0.0 - - - - - - -
30/08:30am 7.8 CALM 0 0 1023.6 - 0.0 - - - - - - -
30/08:00am 6.5 CALM 0 0 1022.9 - 0.0 - - - - - - -
30/07:30am 6.1 CALM 0 2 1022.9 - 0.0 - - - - - - -
30/07:00am 5.3 E 2 3 1022.9 - 0.0 - - - - - - -
30/06:30am 5.0 CALM 0 0 1022.7 - 0.0 - - - - - - -
30/06:00am 5.3 SSE 1 2 1022.6 - 0.0 - - - - - - -
30/05:30am 5.2 CALM 0 0 1022.5 - 0.0 - - - - - - -
30/05:00am 4.6 CALM 0 0 1022.8 - 0.0 - - - - - - -
30/04:30am 4.7 CALM 0 0 1022.6 - 0.0 - - - - - - -
30/04:00am 4.4 CALM 0 0 1022.4 - 0.0 - - - - - - -
30/03:30am 5.3 CALM 0 1 1022.5 - 0.0 - - - - - - -
30/03:00am 5.7 CALM 0 0 1022.4 - 0.0 - - - - - - -
30/02:30am 5.4 CALM 0 0 1022.5 - 0.0 - - - - - - -

Other Formats:

Comma delimited format used in spreadsheet applications
http://www.bom.gov.au/fwo/IDW60701/IDW60701.94604.axf

JavaScript Object Notation format (JSON) in row-major order
http://www.bom.gov.au/fwo/IDW60701/IDW60701.94604.json